WetterOnline ( http://www.wetteronline.de )

Wetter aktuell Mainz

Aktuelles Wetter: Geisenheim (110m)

6-stündlich | Neueste Meldungen
Ortszeit Temperatur Wetter
Mi, 26.09. 8:00 4.3° C wolkig
Mi, 26.09. 2:00 5.6° C wolkig
Di, 25.09. 20:00 11.2° C wolkig
Di, 25.09. 14:00 14.5° C wolkenlos
Di, 25.09. 8:00 5.9° C wolkenlos
Di, 25.09. 2:00 6.5° C wolkenlos
Mo, 24.09. 20:00 9.9° C wolkenlos
Mo, 24.09. 14:00 14.7° C bewölkt
Ortszeit Temperatur Wetter
Mi, 26.09. 12:00 12.0° C -
Mi, 26.09. 11:50 12.0° C -
Mi, 26.09. 11:40 11.7° C -
Mi, 26.09. 11:30 10.5° C -
Mi, 26.09. 11:20 10.5° C -
Mi, 26.09. 11:10 10.0° C wolkig
Mi, 26.09. 11:00 9.3° C wolkig
Mi, 26.09. 10:30 8.5° C wolkig
Mi, 26.09. 10:00 8.1° C bedeckt
Mi, 26.09. 9:30 6.9° C bedeckt
Mi, 26.09. 9:00 6.0° C wolkig
Ortszeit Relative Feuchte Sichtweite
Mi, 26.09. 8:00 89% 50 km
Mi, 26.09. 2:00 86% 55 km
Di, 25.09. 20:00 59% 60 km
Di, 25.09. 14:00 44% 60 km
Di, 25.09. 8:00 91% 25 km
Di, 25.09. 2:00 92% 40 km
Mo, 24.09. 20:00 78% 70 km
Mo, 24.09. 14:00 45% 70 km
Ortszeit Relative Feuchte Sichtweite
Mi, 26.09. 12:00 55% 45 km
Mi, 26.09. 11:50 55% -
Mi, 26.09. 11:40 59% -
Mi, 26.09. 11:30 65% 40 km
Mi, 26.09. 11:20 65% -
Mi, 26.09. 11:10 67% -
Mi, 26.09. 11:00 71% 40 km
Mi, 26.09. 10:30 77% 40 km
Mi, 26.09. 10:00 80% 35 km
Mi, 26.09. 9:30 88% 30 km
Mi, 26.09. 9:00 88% 45 km
Ortszeit Niederschlagsmenge Niederschlagsart
Mi, 26.09. 8:00 0.0 l/m2 in 12 Std. -
Mi, 26.09. 2:00 0.0 l/m2 in 6 Std. -
Di, 25.09. 20:00 0.0 l/m2 in 12 Std. -
Di, 25.09. 14:00 0.0 l/m2 in 6 Std. -
Di, 25.09. 8:00 0.0 l/m2 in 12 Std. -
Di, 25.09. 2:00 0.0 l/m2 in 6 Std. -
Mo, 24.09. 20:00 0.3 l/m2 in 12 Std. Regen
Mo, 24.09. 14:00 0.0 l/m2 in 6 Std. -
Ortszeit Niederschlagsmenge Niederschlagsart
Mi, 26.09. 12:00 0.0 l/m2 in 1 Std. -
Mi, 26.09. 11:50 keine Meldung -
Mi, 26.09. 11:40 keine Meldung -
Mi, 26.09. 11:30 0.0 l/m2 in 1 Std. -
Mi, 26.09. 11:20 keine Meldung -
Mi, 26.09. 11:10 keine Meldung -
Mi, 26.09. 11:00 0.0 l/m2 in 1 Std. -
Mi, 26.09. 10:30 0.0 l/m2 in 1 Std. -
Mi, 26.09. 10:00 0.0 l/m2 in 1 Std. -
Mi, 26.09. 9:30 0.0 l/m2 in 1 Std. -
Mi, 26.09. 9:00 0.0 l/m2 in 1 Std. -
Ortszeit Stärke Spitze Richtung
km/h Bft. km/h Grad Sektor
Mi, 26.09. 8:00 7 2 9 360° N
Mi, 26.09. 2:00 6 1 13 20° N
Di, 25.09. 20:00 7 2 25 20° N
Di, 25.09. 14:00 9 2 22 80° O
Di, 25.09. 8:00 4 1 18 260° W
Di, 25.09. 2:00 11 2 20 340° N
Mo, 24.09. 20:00 7 2 43 330° NW
Mo, 24.09. 14:00 13 3 31 340° N
Ortszeit Stärke Spitze Richtung
km/h Bft. km/h Grad Sektor
Mi, 26.09. 12:00 4 1 11 170° S
Mi, 26.09. 11:50 4 1 - 170° S
Mi, 26.09. 11:40 4 1 - 100° O
Mi, 26.09. 11:30 4 1 7 290° W
Mi, 26.09. 11:20 4 1 - 290° W
Mi, 26.09. 11:10 4 1 - 220° SW
Mi, 26.09. 11:00 4 1 7 190° S
Mi, 26.09. 10:30 4 1 7 200° S
Mi, 26.09. 10:00 4 1 7 280° W
Mi, 26.09. 9:30 4 1 4 230° SW
Mi, 26.09. 9:00 4 1 11 260° W
Ortszeit Untergrenze Bedeckung Gattung
total tief tief mittel hoch
Mi, 26.09. 8:00 7800 m 8/8 0/8 - - -
Mi, 26.09. 2:00 10500 m 7/8 0/8 - - -
Di, 25.09. 20:00 10500 m 8/8 0/8 - - -
Di, 25.09. 14:00 - 0/8 0/8 - - -
Di, 25.09. 8:00 - 0/8 0/8 - - -
Di, 25.09. 2:00 - 0/8 0/8 - - -
Mo, 24.09. 20:00 - 0/8 0/8 - - -
Mo, 24.09. 14:00 1500 m 7/8 7/8 - - -
Ortszeit Bedeckungsgrad in Achtel und Wolkenuntergrenze
Mi, 26.09. 12:00 -
Mi, 26.09. 11:50 -
Mi, 26.09. 11:40 -
Mi, 26.09. 11:30 -
Mi, 26.09. 11:20 -
Mi, 26.09. 11:10 6(7200m) 8(8700m) 8(9000m)
Mi, 26.09. 11:00 4(7500m) 6(8100m) 8(8700m)
Mi, 26.09. 10:30 3(7200m) 8(9000m) 8(9000m)
Mi, 26.09. 10:00 8(6900m)
Mi, 26.09. 9:30 8(6900m)
Mi, 26.09. 9:00 8(7200m)
Ortszeit Luftdruck NN (hPa) Tendenz (hPa in 3 Std.)
Mi, 26.09. 8:00 1037 0,0
Mi, 26.09. 2:00 1038 - 1,1
Di, 25.09. 20:00 1038 - 0,1
Di, 25.09. 14:00 1039 - 0,5
Di, 25.09. 8:00 1039 + 0,6
Di, 25.09. 2:00 1038 + 1,2
Mo, 24.09. 20:00 1035 + 1,3
Mo, 24.09. 14:00 1034 0,0
Ortszeit Luftdruck NN (hPa) Tendenz (hPa in 3 Std.)
Mi, 26.09. 12:00 1036 + 0,2
Mi, 26.09. 11:50 1036 keine Meldung
Mi, 26.09. 11:40 1036 keine Meldung
Mi, 26.09. 11:30 1037 + 0,2
Mi, 26.09. 11:20 1037 keine Meldung
Mi, 26.09. 11:10 1036 keine Meldung
Mi, 26.09. 11:00 1037 + 0,3
Mi, 26.09. 10:30 1037 + 0,5
Mi, 26.09. 10:00 1037 + 0,5
Mi, 26.09. 9:30 1037 + 0,5
Mi, 26.09. 9:00 1036 0,0
Ortszeit Schneehöhe (cm)
Mi, 26.09. 8:00 -
Mi, 26.09. 2:00 -
Di, 25.09. 20:00 -
Di, 25.09. 14:00 -
Di, 25.09. 8:00 -
Di, 25.09. 2:00 -
Mo, 24.09. 20:00 -
Mo, 24.09. 14:00 -
Ortszeit Schneehöhe (cm)
Mi, 26.09. 12:00 -
Mi, 26.09. 11:50 -
Mi, 26.09. 11:40 -
Mi, 26.09. 11:30 -
Mi, 26.09. 11:20 -
Mi, 26.09. 11:10 -
Mi, 26.09. 11:00 -
Mi, 26.09. 10:30 -
Mi, 26.09. 10:00 -
Mi, 26.09. 9:30 -
Mi, 26.09. 9:00 -
Link zu dieser Seite / Seite empfehlen

Das Wetter in ...